sensor_id;sensor_type;location;lat;lon;timestamp;temperature;humidity
14057;DHT22;7103;54.300;10.180;2023-04-25T00:01:57;7.60;99.90
14057;DHT22;7103;54.300;10.180;2023-04-25T00:04:27;7.60;99.90
14057;DHT22;7103;54.300;10.180;2023-04-25T00:06:56;7.70;99.90
14057;DHT22;7103;54.300;10.180;2023-04-25T00:09:24;7.70;99.90
14057;DHT22;7103;54.300;10.180;2023-04-25T00:11:50;7.60;99.90
14057;DHT22;7103;54.300;10.180;2023-04-25T00:14:17;7.60;99.90
14057;DHT22;7103;54.300;10.180;2023-04-25T00:16:44;7.60;99.90
14057;DHT22;7103;54.300;10.180;2023-04-25T00:19:11;7.50;99.90
14057;DHT22;7103;54.300;10.180;2023-04-25T00:21:40;7.50;99.90
14057;DHT22;7103;54.300;10.180;2023-04-25T00:24:07;7.50;99.90
14057;DHT22;7103;54.300;10.180;2023-04-25T00:26:35;7.40;99.90
14057;DHT22;7103;54.300;10.180;2023-04-25T00:29:02;7.50;99.90
14057;DHT22;7103;54.300;10.180;2023-04-25T00:31:30;7.40;99.90
14057;DHT22;7103;54.300;10.180;2023-04-25T00:33:57;7.40;99.90
14057;DHT22;7103;54.300;10.180;2023-04-25T00:36:24;7.50;99.90
14057;DHT22;7103;54.300;10.180;2023-04-25T00:38:53;7.50;99.90
14057;DHT22;7103;54.300;10.180;2023-04-25T00:41:20;7.50;99.90
14057;DHT22;7103;54.300;10.180;2023-04-25T00:43:48;7.40;99.90
14057;DHT22;7103;54.300;10.180;2023-04-25T00:46:16;7.40;99.90
14057;DHT22;7103;54.300;10.180;2023-04-25T00:48:42;7.40;99.90
14057;DHT22;7103;54.300;10.180;2023-04-25T00:51:16;7.40;97.60
14057;DHT22;7103;54.300;10.180;2023-04-25T00:53:44;7.40;95.40
14057;DHT22;7103;54.300;10.180;2023-04-25T00:56:11;7.30;92.50
14057;DHT22;7103;54.300;10.180;2023-04-25T00:58:38;7.30;91.90
14057;DHT22;7103;54.300;10.180;2023-04-25T01:01:08;7.30;89.40
14057;DHT22;7103;54.300;10.180;2023-04-25T01:03:38;7.30;78.10
14057;DHT22;7103;54.300;10.180;2023-04-25T01:06:10;7.20;76.90
14057;DHT22;7103;54.300;10.180;2023-04-25T01:08:39;7.20;76.90
14057;DHT22;7103;54.300;10.180;2023-04-25T01:11:08;7.10;70.10
14057;DHT22;7103;54.300;10.180;2023-04-25T01:13:36;7.20;60.50
14057;DHT22;7103;54.300;10.180;2023-04-25T01:16:03;7.10;46.90
14057;DHT22;7103;54.300;10.180;2023-04-25T01:18:30;7.20;49.50
14057;DHT22;7103;54.300;10.180;2023-04-25T01:21:08;7.10;45.90
14057;DHT22;7103;54.300;10.180;2023-04-25T01:23:41;7.10;46.60
14057;DHT22;7103;54.300;10.180;2023-04-25T01:26:10;7.10;50.90
14057;DHT22;7103;54.300;10.180;2023-04-25T01:28:39;7.10;48.30
14057;DHT22;7103;54.300;10.180;2023-04-25T01:31:08;7.10;54.60
14057;DHT22;7103;54.300;10.180;2023-04-25T01:33:35;7.10;33.20
14057;DHT22;7103;54.300;10.180;2023-04-25T01:36:02;7.10;30.30
14057;DHT22;7103;54.300;10.180;2023-04-25T01:38:30;7.10;20.00
14057;DHT22;7103;54.300;10.180;2023-04-25T01:40:57;7.00;28.20
14057;DHT22;7103;54.300;10.180;2023-04-25T01:43:24;7.00;35.20
14057;DHT22;7103;54.300;10.180;2023-04-25T01:45:53;7.00;19.90
14057;DHT22;7103;54.300;10.180;2023-04-25T01:48:20;7.10;20.00
14057;DHT22;7103;54.300;10.180;2023-04-25T01:50:48;7.00;1.00
14057;DHT22;7103;54.300;10.180;2023-04-25T01:53:15;7.00;1.00
14057;DHT22;7103;54.300;10.180;2023-04-25T01:55:42;6.90;1.00
14057;DHT22;7103;54.300;10.180;2023-04-25T01:58:09;6.80;1.00
14057;DHT22;7103;54.300;10.180;2023-04-25T02:00:39;6.80;1.00
14057;DHT22;7103;54.300;10.180;2023-04-25T02:03:07;6.80;1.00
14057;DHT22;7103;54.300;10.180;2023-04-25T02:05:39;6.60;1.00
14057;DHT22;7103;54.300;10.180;2023-04-25T02:08:08;6.50;1.00
14057;DHT22;7103;54.300;10.180;2023-04-25T02:10:36;6.50;1.00
14057;DHT22;7103;54.300;10.180;2023-04-25T02:13:03;6.50;1.00
14057;DHT22;7103;54.300;10.180;2023-04-25T02:15:31;6.50;1.00
14057;DHT22;7103;54.300;10.180;2023-04-25T02:17:58;6.50;1.00
14057;DHT22;7103;54.300;10.180;2023-04-25T02:20:28;6.50;1.00
14057;DHT22;7103;54.300;10.180;2023-04-25T02:22:55;6.50;1.00
14057;DHT22;7103;54.300;10.180;2023-04-25T02:25:22;6.40;1.00
14057;DHT22;7103;54.300;10.180;2023-04-25T02:27:49;6.40;1.00
14057;DHT22;7103;54.300;10.180;2023-04-25T02:30:17;6.30;1.00
14057;DHT22;7103;54.300;10.180;2023-04-25T02:32:45;6.20;1.00
14057;DHT22;7103;54.300;10.180;2023-04-25T02:35:12;6.20;1.00
14057;DHT22;7103;54.300;10.180;2023-04-25T02:37:39;6.20;1.00
14057;DHT22;7103;54.300;10.180;2023-04-25T02:40:07;6.10;1.00
14057;DHT22;7103;54.300;10.180;2023-04-25T02:42:35;6.10;1.00
14057;DHT22;7103;54.300;10.180;2023-04-25T02:45:02;6.20;1.00
14057;DHT22;7103;54.300;10.180;2023-04-25T02:47:29;6.30;1.00
14057;DHT22;7103;54.300;10.180;2023-04-25T02:49:56;6.30;1.00
14057;DHT22;7103;54.300;10.180;2023-04-25T02:52:23;6.30;1.00
14057;DHT22;7103;54.300;10.180;2023-04-25T02:54:51;6.30;1.00
14057;DHT22;7103;54.300;10.180;2023-04-25T02:57:18;6.30;1.00
14057;DHT22;7103;54.300;10.180;2023-04-25T02:59:45;6.30;1.00
14057;DHT22;7103;54.300;10.180;2023-04-25T03:02:12;6.30;1.00
14057;DHT22;7103;54.300;10.180;2023-04-25T03:04:39;6.20;1.00
14057;DHT22;7103;54.300;10.180;2023-04-25T03:07:06;6.20;1.00
14057;DHT22;7103;54.300;10.180;2023-04-25T03:09:33;6.30;1.00
14057;DHT22;7103;54.300;10.180;2023-04-25T03:12:01;6.30;1.00
14057;DHT22;7103;54.300;10.180;2023-04-25T03:14:28;6.30;1.00
14057;DHT22;7103;54.300;10.180;2023-04-25T03:16:55;6.20;1.00
14057;DHT22;7103;54.300;10.180;2023-04-25T03:19:22;6.20;1.00
14057;DHT22;7103;54.300;10.180;2023-04-25T03:21:49;6.10;1.00
14057;DHT22;7103;54.300;10.180;2023-04-25T03:24:16;6.10;1.00
14057;DHT22;7103;54.300;10.180;2023-04-25T03:26:42;6.10;1.00
14057;DHT22;7103;54.300;10.180;2023-04-25T03:29:09;6.10;1.00
14057;DHT22;7103;54.300;10.180;2023-04-25T03:31:36;6.10;1.00
14057;DHT22;7103;54.300;10.180;2023-04-25T03:34:03;6.10;1.00
14057;DHT22;7103;54.300;10.180;2023-04-25T03:36:30;6.20;1.00
14057;DHT22;7103;54.300;10.180;2023-04-25T03:38:57;6.30;1.00
14057;DHT22;7103;54.300;10.180;2023-04-25T03:41:24;6.20;1.00
14057;DHT22;7103;54.300;10.180;2023-04-25T03:43:51;6.20;1.00
14057;DHT22;7103;54.300;10.180;2023-04-25T03:46:18;6.10;1.00
14057;DHT22;7103;54.300;10.180;2023-04-25T03:48:45;6.10;1.00
14057;DHT22;7103;54.300;10.180;2023-04-25T03:51:12;6.20;1.00
14057;DHT22;7103;54.300;10.180;2023-04-25T03:53:39;6.10;1.00
14057;DHT22;7103;54.300;10.180;2023-04-25T03:56:06;6.20;1.00
14057;DHT22;7103;54.300;10.180;2023-04-25T03:58:33;6.20;1.00
14057;DHT22;7103;54.300;10.180;2023-04-25T04:01:00;6.20;1.00
14057;DHT22;7103;54.300;10.180;2023-04-25T04:03:29;6.20;1.00
14057;DHT22;7103;54.300;10.180;2023-04-25T04:05:56;6.20;1.00
14057;DHT22;7103;54.300;10.180;2023-04-25T04:08:23;6.20;1.00
14057;DHT22;7103;54.300;10.180;2023-04-25T04:10:50;6.20;1.00
14057;DHT22;7103;54.300;10.180;2023-04-25T04:13:17;6.20;1.00
14057;DHT22;7103;54.300;10.180;2023-04-25T04:15:44;6.20;1.00
14057;DHT22;7103;54.300;10.180;2023-04-25T04:18:11;6.20;1.00
14057;DHT22;7103;54.300;10.180;2023-04-25T04:20:38;6.20;1.00
14057;DHT22;7103;54.300;10.180;2023-04-25T04:23:05;6.20;1.00
14057;DHT22;7103;54.300;10.180;2023-04-25T04:25:32;6.10;1.00
14057;DHT22;7103;54.300;10.180;2023-04-25T04:27:59;6.10;1.00
14057;DHT22;7103;54.300;10.180;2023-04-25T04:30:27;6.10;1.00
14057;DHT22;7103;54.300;10.180;2023-04-25T04:32:57;6.10;1.00
14057;DHT22;7103;54.300;10.180;2023-04-25T04:35:24;6.20;1.00
14057;DHT22;7103;54.300;10.180;2023-04-25T04:37:51;6.20;1.00
14057;DHT22;7103;54.300;10.180;2023-04-25T04:40:18;6.20;1.00
14057;DHT22;7103;54.300;10.180;2023-04-25T04:42:45;6.10;1.00
14057;DHT22;7103;54.300;10.180;2023-04-25T04:45:13;6.20;1.00
14057;DHT22;7103;54.300;10.180;2023-04-25T04:47:40;6.20;1.00
14057;DHT22;7103;54.300;10.180;2023-04-25T04:50:11;6.30;1.00
14057;DHT22;7103;54.300;10.180;2023-04-25T04:52:38;6.30;1.00
14057;DHT22;7103;54.300;10.180;2023-04-25T04:55:05;6.40;1.00
14057;DHT22;7103;54.300;10.180;2023-04-25T04:57:32;6.40;1.00
14057;DHT22;7103;54.300;10.180;2023-04-25T05:00:00;6.40;1.00
14057;DHT22;7103;54.300;10.180;2023-04-25T05:02:28;6.50;1.00
14057;DHT22;7103;54.300;10.180;2023-04-25T05:04:56;6.50;1.00
14057;DHT22;7103;54.300;10.180;2023-04-25T05:07:23;6.50;1.00
14057;DHT22;7103;54.300;10.180;2023-04-25T05:09:50;6.50;1.00
14057;DHT22;7103;54.300;10.180;2023-04-25T05:12:17;6.50;1.00
14057;DHT22;7103;54.300;10.180;2023-04-25T05:14:44;6.40;1.00
14057;DHT22;7103;54.300;10.180;2023-04-25T05:17:11;6.50;1.00
14057;DHT22;7103;54.300;10.180;2023-04-25T05:19:39;6.50;1.00
14057;DHT22;7103;54.300;10.180;2023-04-25T05:22:06;6.50;1.00
14057;DHT22;7103;54.300;10.180;2023-04-25T05:24:33;6.50;1.00
14057;DHT22;7103;54.300;10.180;2023-04-25T05:27:00;6.50;1.00
14057;DHT22;7103;54.300;10.180;2023-04-25T05:29:27;6.60;1.00
14057;DHT22;7103;54.300;10.180;2023-04-25T05:31:54;6.60;1.00
14057;DHT22;7103;54.300;10.180;2023-04-25T05:34:21;6.50;1.00
14057;DHT22;7103;54.300;10.180;2023-04-25T05:36:48;6.60;1.00
14057;DHT22;7103;54.300;10.180;2023-04-25T05:39:16;6.50;1.00
14057;DHT22;7103;54.300;10.180;2023-04-25T05:41:44;6.50;1.00
14057;DHT22;7103;54.300;10.180;2023-04-25T05:44:11;6.60;1.00
14057;DHT22;7103;54.300;10.180;2023-04-25T05:46:37;6.70;1.00
14057;DHT22;7103;54.300;10.180;2023-04-25T05:49:04;6.70;1.00
14057;DHT22;7103;54.300;10.180;2023-04-25T05:51:31;6.70;1.00
14057;DHT22;7103;54.300;10.180;2023-04-25T05:53:58;6.60;1.00
14057;DHT22;7103;54.300;10.180;2023-04-25T05:56:25;6.70;1.00
14057;DHT22;7103;54.300;10.180;2023-04-25T05:58:52;6.80;1.00
14057;DHT22;7103;54.300;10.180;2023-04-25T06:01:19;6.90;1.00
14057;DHT22;7103;54.300;10.180;2023-04-25T06:03:46;6.90;1.00
14057;DHT22;7103;54.300;10.180;2023-04-25T06:06:14;6.90;1.00
14057;DHT22;7103;54.300;10.180;2023-04-25T06:08:41;6.90;1.00
14057;DHT22;7103;54.300;10.180;2023-04-25T06:11:08;6.90;1.00
14057;DHT22;7103;54.300;10.180;2023-04-25T06:13:35;6.90;1.00
14057;DHT22;7103;54.300;10.180;2023-04-25T06:16:02;6.90;1.00
14057;DHT22;7103;54.300;10.180;2023-04-25T06:18:29;6.90;1.00
14057;DHT22;7103;54.300;10.180;2023-04-25T06:20:56;7.10;1.00
14057;DHT22;7103;54.300;10.180;2023-04-25T06:23:23;7.10;1.00
14057;DHT22;7103;54.300;10.180;2023-04-25T06:25:49;7.20;1.00
14057;DHT22;7103;54.300;10.180;2023-04-25T06:28:16;7.20;1.00
14057;DHT22;7103;54.300;10.180;2023-04-25T06:30:43;7.30;1.00
14057;DHT22;7103;54.300;10.180;2023-04-25T06:33:10;7.40;1.00
14057;DHT22;7103;54.300;10.180;2023-04-25T06:35:37;7.50;1.00
14057;DHT22;7103;54.300;10.180;2023-04-25T06:38:04;7.60;1.00
14057;DHT22;7103;54.300;10.180;2023-04-25T06:40:31;7.60;1.00
14057;DHT22;7103;54.300;10.180;2023-04-25T06:42:58;7.70;1.00
14057;DHT22;7103;54.300;10.180;2023-04-25T06:45:25;7.80;1.00
14057;DHT22;7103;54.300;10.180;2023-04-25T06:47:52;7.80;1.00
14057;DHT22;7103;54.300;10.180;2023-04-25T06:50:19;8.00;1.00
14057;DHT22;7103;54.300;10.180;2023-04-25T06:52:45;8.00;1.00
14057;DHT22;7103;54.300;10.180;2023-04-25T06:55:12;8.00;1.00
14057;DHT22;7103;54.300;10.180;2023-04-25T06:57:40;7.80;1.00
14057;DHT22;7103;54.300;10.180;2023-04-25T07:00:07;7.70;1.00
14057;DHT22;7103;54.300;10.180;2023-04-25T07:02:36;7.70;1.00
14057;DHT22;7103;54.300;10.180;2023-04-25T07:05:03;7.60;1.00
14057;DHT22;7103;54.300;10.180;2023-04-25T07:07:31;7.70;1.00
14057;DHT22;7103;54.300;10.180;2023-04-25T07:09:57;7.70;1.00
14057;DHT22;7103;54.300;10.180;2023-04-25T07:12:24;7.60;1.00
14057;DHT22;7103;54.300;10.180;2023-04-25T07:14:51;7.70;1.00
14057;DHT22;7103;54.300;10.180;2023-04-25T07:17:18;7.80;1.00
14057;DHT22;7103;54.300;10.180;2023-04-25T07:19:45;7.70;1.00
14057;DHT22;7103;54.300;10.180;2023-04-25T07:22:12;7.70;1.00
14057;DHT22;7103;54.300;10.180;2023-04-25T07:24:39;7.70;1.00
14057;DHT22;7103;54.300;10.180;2023-04-25T07:27:06;7.80;1.00
14057;DHT22;7103;54.300;10.180;2023-04-25T07:29:33;7.90;1.00
14057;DHT22;7103;54.300;10.180;2023-04-25T07:32:03;7.90;1.00
14057;DHT22;7103;54.300;10.180;2023-04-25T07:34:30;7.80;1.00
14057;DHT22;7103;54.300;10.180;2023-04-25T07:36:58;7.70;1.00
14057;DHT22;7103;54.300;10.180;2023-04-25T07:39:26;7.60;1.00
14057;DHT22;7103;54.300;10.180;2023-04-25T07:41:53;7.50;1.00
14057;DHT22;7103;54.300;10.180;2023-04-25T07:44:21;7.60;1.00
14057;DHT22;7103;54.300;10.180;2023-04-25T07:46:48;7.70;1.00
14057;DHT22;7103;54.300;10.180;2023-04-25T07:49:15;7.80;1.00
14057;DHT22;7103;54.300;10.180;2023-04-25T07:51:42;7.90;1.00
14057;DHT22;7103;54.300;10.180;2023-04-25T07:54:17;7.90;1.00
14057;DHT22;7103;54.300;10.180;2023-04-25T07:56:44;8.10;1.00
14057;DHT22;7103;54.300;10.180;2023-04-25T07:59:20;8.20;1.00
14057;DHT22;7103;54.300;10.180;2023-04-25T08:01:48;8.30;1.00
14057;DHT22;7103;54.300;10.180;2023-04-25T08:04:15;8.90;1.00
14057;DHT22;7103;54.300;10.180;2023-04-25T08:06:42;10.10;1.00
14057;DHT22;7103;54.300;10.180;2023-04-25T08:09:09;11.50;1.00
14057;DHT22;7103;54.300;10.180;2023-04-25T08:11:37;12.40;1.00
14057;DHT22;7103;54.300;10.180;2023-04-25T08:14:05;11.80;1.00
14057;DHT22;7103;54.300;10.180;2023-04-25T08:16:32;11.00;1.00
14057;DHT22;7103;54.300;10.180;2023-04-25T08:19:00;10.60;1.00
14057;DHT22;7103;54.300;10.180;2023-04-25T08:21:27;10.10;1.00
14057;DHT22;7103;54.300;10.180;2023-04-25T08:23:54;9.60;1.00
14057;DHT22;7103;54.300;10.180;2023-04-25T08:26:21;9.30;1.00
14057;DHT22;7103;54.300;10.180;2023-04-25T08:28:48;9.20;1.00
14057;DHT22;7103;54.300;10.180;2023-04-25T08:31:15;9.00;1.00
14057;DHT22;7103;54.300;10.180;2023-04-25T08:33:42;8.90;1.00
14057;DHT22;7103;54.300;10.180;2023-04-25T08:36:10;8.90;1.00
14057;DHT22;7103;54.300;10.180;2023-04-25T08:38:37;9.00;1.00
14057;DHT22;7103;54.300;10.180;2023-04-25T08:41:05;9.20;1.00
14057;DHT22;7103;54.300;10.180;2023-04-25T08:43:34;9.40;1.00
14057;DHT22;7103;54.300;10.180;2023-04-25T08:46:01;9.90;1.00
14057;DHT22;7103;54.300;10.180;2023-04-25T08:48:32;10.30;1.00
14057;DHT22;7103;54.300;10.180;2023-04-25T08:51:02;10.70;1.00
14057;DHT22;7103;54.300;10.180;2023-04-25T08:53:32;10.80;1.00
14057;DHT22;7103;54.300;10.180;2023-04-25T08:56:01;10.50;1.00
14057;DHT22;7103;54.300;10.180;2023-04-25T08:58:32;10.10;1.00
14057;DHT22;7103;54.300;10.180;2023-04-25T09:00:59;9.90;1.00
14057;DHT22;7103;54.300;10.180;2023-04-25T09:03:27;9.60;1.00
14057;DHT22;7103;54.300;10.180;2023-04-25T09:05:55;9.50;1.00
14057;DHT22;7103;54.300;10.180;2023-04-25T09:08:22;9.60;1.00
14057;DHT22;7103;54.300;10.180;2023-04-25T09:10:49;9.70;1.00
14057;DHT22;7103;54.300;10.180;2023-04-25T09:13:24;9.80;1.00
14057;DHT22;7103;54.300;10.180;2023-04-25T09:15:53;9.70;1.00
14057;DHT22;7103;54.300;10.180;2023-04-25T09:18:27;9.80;1.00
14057;DHT22;7103;54.300;10.180;2023-04-25T09:21:08;9.90;1.00
14057;DHT22;7103;54.300;10.180;2023-04-25T09:23:43;9.80;1.00
14057;DHT22;7103;54.300;10.180;2023-04-25T09:26:14;9.90;1.00
14057;DHT22;7103;54.300;10.180;2023-04-25T09:28:41;9.80;1.00
14057;DHT22;7103;54.300;10.180;2023-04-25T09:31:10;9.80;1.00
14057;DHT22;7103;54.300;10.180;2023-04-25T09:33:38;9.70;1.00
14057;DHT22;7103;54.300;10.180;2023-04-25T09:36:07;9.90;1.00
14057;DHT22;7103;54.300;10.180;2023-04-25T09:38:42;10.20;1.00
14057;DHT22;7103;54.300;10.180;2023-04-25T09:41:10;10.60;1.00
14057;DHT22;7103;54.300;10.180;2023-04-25T09:43:38;10.80;1.00
14057;DHT22;7103;54.300;10.180;2023-04-25T09:46:10;10.70;1.00
14057;DHT22;7103;54.300;10.180;2023-04-25T09:48:38;10.70;1.00
14057;DHT22;7103;54.300;10.180;2023-04-25T09:51:11;10.80;1.00
14057;DHT22;7103;54.300;10.180;2023-04-25T09:53:45;10.70;1.00
14057;DHT22;7103;54.300;10.180;2023-04-25T09:56:20;10.70;1.00
14057;DHT22;7103;54.300;10.180;2023-04-25T09:58:50;10.60;1.00
14057;DHT22;7103;54.300;10.180;2023-04-25T10:01:16;10.60;1.00
14057;DHT22;7103;54.300;10.180;2023-04-25T10:03:47;10.50;1.00
14057;DHT22;7103;54.300;10.180;2023-04-25T10:06:19;10.20;1.00
14057;DHT22;7103;54.300;10.180;2023-04-25T10:08:51;10.50;1.00
14057;DHT22;7103;54.300;10.180;2023-04-25T10:11:20;10.70;1.00
14057;DHT22;7103;54.300;10.180;2023-04-25T10:13:50;10.60;1.00
14057;DHT22;7103;54.300;10.180;2023-04-25T10:16:17;10.10;1.00
14057;DHT22;7103;54.300;10.180;2023-04-25T10:18:45;9.80;1.00
14057;DHT22;7103;54.300;10.180;2023-04-25T10:21:12;9.40;1.00
14057;DHT22;7103;54.300;10.180;2023-04-25T10:23:41;8.90;1.00
14057;DHT22;7103;54.300;10.180;2023-04-25T10:26:08;8.80;1.00
14057;DHT22;7103;54.300;10.180;2023-04-25T10:31:22;10.20;1.00
14057;DHT22;7103;54.300;10.180;2023-04-25T10:33:49;10.40;1.00
14057;DHT22;7103;54.300;10.180;2023-04-25T10:36:21;10.60;1.00
14057;DHT22;7103;54.300;10.180;2023-04-25T10:38:50;10.60;1.00
14057;DHT22;7103;54.300;10.180;2023-04-25T10:41:19;10.50;1.00
14057;DHT22;7103;54.300;10.180;2023-04-25T10:43:48;10.30;1.00
14057;DHT22;7103;54.300;10.180;2023-04-25T10:46:26;10.20;1.00
14057;DHT22;7103;54.300;10.180;2023-04-25T10:48:58;10.10;1.00
14057;DHT22;7103;54.300;10.180;2023-04-25T10:51:27;10.30;1.00
14057;DHT22;7103;54.300;10.180;2023-04-25T10:54:08;10.50;1.00
14057;DHT22;7103;54.300;10.180;2023-04-25T10:56:42;10.90;1.00
14057;DHT22;7103;54.300;10.180;2023-04-25T10:59:16;11.20;1.00
14057;DHT22;7103;54.300;10.180;2023-04-25T11:01:53;11.40;1.00
14057;DHT22;7103;54.300;10.180;2023-04-25T11:04:31;12.30;1.00
14057;DHT22;7103;54.300;10.180;2023-04-25T11:07:21;12.50;1.00
14057;DHT22;7103;54.300;10.180;2023-04-25T11:09:50;12.60;1.00
14057;DHT22;7103;54.300;10.180;2023-04-25T11:12:17;12.50;1.00
14057;DHT22;7103;54.300;10.180;2023-04-25T11:14:44;12.50;1.00
14057;DHT22;7103;54.300;10.180;2023-04-25T11:17:11;12.20;1.00
14057;DHT22;7103;54.300;10.180;2023-04-25T11:19:38;12.00;1.00
14057;DHT22;7103;54.300;10.180;2023-04-25T11:22:05;11.60;1.00
14057;DHT22;7103;54.300;10.180;2023-04-25T11:24:35;10.90;1.00
14057;DHT22;7103;54.300;10.180;2023-04-25T11:27:02;10.20;1.00
14057;DHT22;7103;54.300;10.180;2023-04-25T11:29:31;10.00;1.00
14057;DHT22;7103;54.300;10.180;2023-04-25T11:31:59;9.80;1.00
14057;DHT22;7103;54.300;10.180;2023-04-25T11:34:31;9.90;1.00
14057;DHT22;7103;54.300;10.180;2023-04-25T11:37:00;10.20;1.00
14057;DHT22;7103;54.300;10.180;2023-04-25T11:39:29;10.40;1.00
14057;DHT22;7103;54.300;10.180;2023-04-25T11:41:56;10.40;1.00
14057;DHT22;7103;54.300;10.180;2023-04-25T11:44:23;10.60;1.00
14057;DHT22;7103;54.300;10.180;2023-04-25T11:46:50;11.10;1.00
14057;DHT22;7103;54.300;10.180;2023-04-25T11:49:17;11.70;1.00
14057;DHT22;7103;54.300;10.180;2023-04-25T11:51:46;11.90;1.00
14057;DHT22;7103;54.300;10.180;2023-04-25T11:54:14;12.00;1.00
14057;DHT22;7103;54.300;10.180;2023-04-25T11:56:42;11.80;1.00
14057;DHT22;7103;54.300;10.180;2023-04-25T11:59:10;12.30;1.00
14057;DHT22;7103;54.300;10.180;2023-04-25T12:01:41;12.10;1.00
14057;DHT22;7103;54.300;10.180;2023-04-25T12:04:16;11.90;1.00
14057;DHT22;7103;54.300;10.180;2023-04-25T12:06:45;11.20;1.00
14057;DHT22;7103;54.300;10.180;2023-04-25T12:09:17;10.60;1.00
14057;DHT22;7103;54.300;10.180;2023-04-25T12:11:52;10.10;1.00
14057;DHT22;7103;54.300;10.180;2023-04-25T12:14:23;9.90;1.00
14057;DHT22;7103;54.300;10.180;2023-04-25T12:16:51;9.90;1.00
14057;DHT22;7103;54.300;10.180;2023-04-25T12:19:19;10.00;1.00
14057;DHT22;7103;54.300;10.180;2023-04-25T12:21:47;10.10;1.00
14057;DHT22;7103;54.300;10.180;2023-04-25T12:24:21;10.30;1.00
14057;DHT22;7103;54.300;10.180;2023-04-25T12:27:02;10.60;1.00
14057;DHT22;7103;54.300;10.180;2023-04-25T12:29:31;11.00;1.00
14057;DHT22;7103;54.300;10.180;2023-04-25T12:32:13;10.60;1.00
14057;DHT22;7103;54.300;10.180;2023-04-25T12:34:40;10.20;1.00
14057;DHT22;7103;54.300;10.180;2023-04-25T12:37:08;9.80;1.00
14057;DHT22;7103;54.300;10.180;2023-04-25T12:39:35;9.50;1.00
14057;DHT22;7103;54.300;10.180;2023-04-25T12:42:02;9.50;1.00
14057;DHT22;7103;54.300;10.180;2023-04-25T12:44:31;9.60;1.00
14057;DHT22;7103;54.300;10.180;2023-04-25T12:46:58;10.00;1.00
14057;DHT22;7103;54.300;10.180;2023-04-25T12:49:26;10.40;1.00
14057;DHT22;7103;54.300;10.180;2023-04-25T12:51:53;10.80;1.00
14057;DHT22;7103;54.300;10.180;2023-04-25T12:54:20;11.10;1.00
14057;DHT22;7103;54.300;10.180;2023-04-25T12:56:47;11.00;1.00
14057;DHT22;7103;54.300;10.180;2023-04-25T12:59:14;10.30;1.00
14057;DHT22;7103;54.300;10.180;2023-04-25T13:01:42;10.00;1.00
14057;DHT22;7103;54.300;10.180;2023-04-25T13:04:09;9.70;1.00
14057;DHT22;7103;54.300;10.180;2023-04-25T13:06:36;9.70;1.00
14057;DHT22;7103;54.300;10.180;2023-04-25T13:09:03;9.70;1.00
14057;DHT22;7103;54.300;10.180;2023-04-25T13:11:31;9.80;1.00
14057;DHT22;7103;54.300;10.180;2023-04-25T13:13:58;9.80;1.00
14057;DHT22;7103;54.300;10.180;2023-04-25T13:16:25;10.40;1.00
14057;DHT22;7103;54.300;10.180;2023-04-25T13:18:52;10.70;1.00
14057;DHT22;7103;54.300;10.180;2023-04-25T13:21:18;10.90;1.00
14057;DHT22;7103;54.300;10.180;2023-04-25T13:23:45;11.00;1.00
14057;DHT22;7103;54.300;10.180;2023-04-25T13:26:13;11.10;1.00
14057;DHT22;7103;54.300;10.180;2023-04-25T13:28:40;11.20;1.00
14057;DHT22;7103;54.300;10.180;2023-04-25T13:31:10;11.20;1.00
14057;DHT22;7103;54.300;10.180;2023-04-25T13:33:37;11.50;1.00
14057;DHT22;7103;54.300;10.180;2023-04-25T13:36:04;11.80;1.00
14057;DHT22;7103;54.300;10.180;2023-04-25T13:38:32;12.00;1.00
14057;DHT22;7103;54.300;10.180;2023-04-25T13:40:59;11.60;1.00
14057;DHT22;7103;54.300;10.180;2023-04-25T13:43:27;11.30;1.00
14057;DHT22;7103;54.300;10.180;2023-04-25T13:45:54;10.80;1.00
14057;DHT22;7103;54.300;10.180;2023-04-25T13:48:21;10.60;1.00
14057;DHT22;7103;54.300;10.180;2023-04-25T13:50:49;10.30;1.00
14057;DHT22;7103;54.300;10.180;2023-04-25T13:53:16;9.80;1.00
14057;DHT22;7103;54.300;10.180;2023-04-25T13:55:43;9.30;1.00
14057;DHT22;7103;54.300;10.180;2023-04-25T13:58:10;9.10;1.00
14057;DHT22;7103;54.300;10.180;2023-04-25T14:00:38;9.30;1.00
14057;DHT22;7103;54.300;10.180;2023-04-25T14:03:09;9.40;1.00
14057;DHT22;7103;54.300;10.180;2023-04-25T14:05:37;9.30;1.00
14057;DHT22;7103;54.300;10.180;2023-04-25T14:08:09;9.20;1.00
14057;DHT22;7103;54.300;10.180;2023-04-25T14:10:36;9.10;1.00
14057;DHT22;7103;54.300;10.180;2023-04-25T14:13:04;8.90;1.00
14057;DHT22;7103;54.300;10.180;2023-04-25T14:15:31;8.70;1.00
14057;DHT22;7103;54.300;10.180;2023-04-25T14:17:59;8.50;1.00
14057;DHT22;7103;54.300;10.180;2023-04-25T14:20:26;8.30;1.00
14057;DHT22;7103;54.300;10.180;2023-04-25T14:22:53;8.20;1.00
14057;DHT22;7103;54.300;10.180;2023-04-25T14:25:22;8.20;1.00
14057;DHT22;7103;54.300;10.180;2023-04-25T14:27:49;8.10;1.00
14057;DHT22;7103;54.300;10.180;2023-04-25T14:30:18;8.00;1.00
14057;DHT22;7103;54.300;10.180;2023-04-25T14:32:45;7.80;1.00
14057;DHT22;7103;54.300;10.180;2023-04-25T14:35:13;7.60;1.00
14057;DHT22;7103;54.300;10.180;2023-04-25T14:37:40;7.40;1.00
14057;DHT22;7103;54.300;10.180;2023-04-25T14:40:07;7.20;1.00
14057;DHT22;7103;54.300;10.180;2023-04-25T14:42:39;7.10;1.00
14057;DHT22;7103;54.300;10.180;2023-04-25T14:45:07;7.30;1.00
14057;DHT22;7103;54.300;10.180;2023-04-25T14:47:36;7.50;1.00
14057;DHT22;7103;54.300;10.180;2023-04-25T14:50:05;7.70;1.00
14057;DHT22;7103;54.300;10.180;2023-04-25T14:52:32;7.90;1.00
14057;DHT22;7103;54.300;10.180;2023-04-25T14:54:59;8.20;1.00
14057;DHT22;7103;54.300;10.180;2023-04-25T14:57:27;8.50;1.00
14057;DHT22;7103;54.300;10.180;2023-04-25T14:59:53;8.80;1.00
14057;DHT22;7103;54.300;10.180;2023-04-25T15:02:21;9.00;1.00
14057;DHT22;7103;54.300;10.180;2023-04-25T15:04:48;9.20;1.00
14057;DHT22;7103;54.300;10.180;2023-04-25T15:07:15;9.30;1.00
14057;DHT22;7103;54.300;10.180;2023-04-25T15:09:44;9.30;1.00
14057;DHT22;7103;54.300;10.180;2023-04-25T15:12:12;9.50;1.00
14057;DHT22;7103;54.300;10.180;2023-04-25T15:14:38;9.40;1.00
14057;DHT22;7103;54.300;10.180;2023-04-25T15:17:05;9.30;1.00
14057;DHT22;7103;54.300;10.180;2023-04-25T15:19:33;9.20;1.00
14057;DHT22;7103;54.300;10.180;2023-04-25T15:21:59;9.10;1.00
14057;DHT22;7103;54.300;10.180;2023-04-25T15:24:30;9.10;1.00
14057;DHT22;7103;54.300;10.180;2023-04-25T15:26:57;8.90;1.00
14057;DHT22;7103;54.300;10.180;2023-04-25T15:29:24;8.90;1.00
14057;DHT22;7103;54.300;10.180;2023-04-25T15:31:53;8.90;1.00
14057;DHT22;7103;54.300;10.180;2023-04-25T15:34:20;8.90;1.00
14057;DHT22;7103;54.300;10.180;2023-04-25T15:36:47;8.90;1.00
14057;DHT22;7103;54.300;10.180;2023-04-25T15:39:14;8.90;1.00
14057;DHT22;7103;54.300;10.180;2023-04-25T15:41:41;8.90;1.00
14057;DHT22;7103;54.300;10.180;2023-04-25T15:44:08;8.80;1.00
14057;DHT22;7103;54.300;10.180;2023-04-25T15:46:37;8.90;1.00
14057;DHT22;7103;54.300;10.180;2023-04-25T15:49:04;9.00;1.00
14057;DHT22;7103;54.300;10.180;2023-04-25T15:51:31;9.00;1.00
14057;DHT22;7103;54.300;10.180;2023-04-25T15:53:59;9.20;1.00
14057;DHT22;7103;54.300;10.180;2023-04-25T15:56:30;9.50;1.00
14057;DHT22;7103;54.300;10.180;2023-04-25T15:58:57;9.70;1.00
14057;DHT22;7103;54.300;10.180;2023-04-25T16:01:24;9.70;1.00
14057;DHT22;7103;54.300;10.180;2023-04-25T16:03:52;9.40;1.00
14057;DHT22;7103;54.300;10.180;2023-04-25T16:06:19;9.40;1.00